sensor_id;sensor_type;location;lat;lon;timestamp;temperature;humidity
25332;DHT22;13284;52.748;13.452;2022-09-09T00:00:55;16.00;99.90
25332;DHT22;13284;52.748;13.452;2022-09-09T00:03:35;16.00;99.90
25332;DHT22;13284;52.748;13.452;2022-09-09T00:09:12;16.00;99.90
25332;DHT22;13284;52.748;13.452;2022-09-09T00:11:51;15.90;99.90
25332;DHT22;13284;52.748;13.452;2022-09-09T00:17:02;15.80;99.90
25332;DHT22;13284;52.748;13.452;2022-09-09T00:19:43;15.80;99.90
25332;DHT22;13284;52.748;13.452;2022-09-09T00:22:17;15.80;99.90
25332;DHT22;13284;52.748;13.452;2022-09-09T00:24:45;15.80;99.90
25332;DHT22;13284;52.748;13.452;2022-09-09T00:27:33;15.80;99.90
25332;DHT22;13284;52.748;13.452;2022-09-09T00:30:25;15.80;99.90
25332;DHT22;13284;52.748;13.452;2022-09-09T00:32:59;15.70;99.90
25332;DHT22;13284;52.748;13.452;2022-09-09T00:35:35;15.60;99.90
25332;DHT22;13284;52.748;13.452;2022-09-09T00:38:15;15.60;99.90
25332;DHT22;13284;52.748;13.452;2022-09-09T00:41:02;15.50;99.90
25332;DHT22;13284;52.748;13.452;2022-09-09T00:43:38;15.50;99.90
25332;DHT22;13284;52.748;13.452;2022-09-09T00:46:33;15.50;99.90
25332;DHT22;13284;52.748;13.452;2022-09-09T00:55:07;15.40;99.90
25332;DHT22;13284;52.748;13.452;2022-09-09T00:57:36;15.30;99.90
25332;DHT22;13284;52.748;13.452;2022-09-09T01:05:46;15.10;99.90
25332;DHT22;13284;52.748;13.452;2022-09-09T01:11:02;15.10;99.90
25332;DHT22;13284;52.748;13.452;2022-09-09T01:13:30;15.00;99.90
25332;DHT22;13284;52.748;13.452;2022-09-09T01:16:02;15.00;99.90
25332;DHT22;13284;52.748;13.452;2022-09-09T01:18:40;15.00;99.90
25332;DHT22;13284;52.748;13.452;2022-09-09T01:21:24;15.00;99.90
25332;DHT22;13284;52.748;13.452;2022-09-09T01:24:25;14.90;99.90
25332;DHT22;13284;52.748;13.452;2022-09-09T01:26:56;14.90;99.90
25332;DHT22;13284;52.748;13.452;2022-09-09T01:29:24;14.90;99.90
25332;DHT22;13284;52.748;13.452;2022-09-09T01:34:31;14.80;99.90
25332;DHT22;13284;52.748;13.452;2022-09-09T01:37:07;14.80;99.90
25332;DHT22;13284;52.748;13.452;2022-09-09T01:39:35;14.80;99.90
25332;DHT22;13284;52.748;13.452;2022-09-09T01:42:02;14.80;99.90
25332;DHT22;13284;52.748;13.452;2022-09-09T01:44:28;14.70;99.90
25332;DHT22;13284;52.748;13.452;2022-09-09T01:46:55;14.60;99.90
25332;DHT22;13284;52.748;13.452;2022-09-09T01:49:21;14.70;99.90
25332;DHT22;13284;52.748;13.452;2022-09-09T01:51:49;14.70;99.90
25332;DHT22;13284;52.748;13.452;2022-09-09T01:54:15;14.60;99.90
25332;DHT22;13284;52.748;13.452;2022-09-09T01:59:37;14.60;99.90
25332;DHT22;13284;52.748;13.452;2022-09-09T02:02:17;14.60;99.90
25332;DHT22;13284;52.748;13.452;2022-09-09T02:04:51;14.60;99.90
25332;DHT22;13284;52.748;13.452;2022-09-09T02:10:02;14.50;99.90
25332;DHT22;13284;52.748;13.452;2022-09-09T02:12:31;14.50;99.90
25332;DHT22;13284;52.748;13.452;2022-09-09T02:15:05;14.50;99.90
25332;DHT22;13284;52.748;13.452;2022-09-09T02:17:36;14.50;99.90
25332;DHT22;13284;52.748;13.452;2022-09-09T02:20:10;14.50;99.90
25332;DHT22;13284;52.748;13.452;2022-09-09T02:22:39;14.50;99.90
25332;DHT22;13284;52.748;13.452;2022-09-09T02:25:08;14.50;99.90
25332;DHT22;13284;52.748;13.452;2022-09-09T02:27:35;14.50;99.90
25332;DHT22;13284;52.748;13.452;2022-09-09T02:30:04;14.40;99.90
25332;DHT22;13284;52.748;13.452;2022-09-09T02:32:31;14.40;99.90
25332;DHT22;13284;52.748;13.452;2022-09-09T02:35:15;14.40;99.90
25332;DHT22;13284;52.748;13.452;2022-09-09T02:37:42;14.40;99.90
25332;DHT22;13284;52.748;13.452;2022-09-09T02:40:12;14.40;99.90
25332;DHT22;13284;52.748;13.452;2022-09-09T02:42:40;14.30;99.90
25332;DHT22;13284;52.748;13.452;2022-09-09T02:45:08;14.30;99.90
25332;DHT22;13284;52.748;13.452;2022-09-09T02:47:51;14.30;99.90
25332;DHT22;13284;52.748;13.452;2022-09-09T02:50:33;14.40;99.90
25332;DHT22;13284;52.748;13.452;2022-09-09T02:53:16;14.30;99.90
25332;DHT22;13284;52.748;13.452;2022-09-09T02:58:20;14.30;99.90
25332;DHT22;13284;52.748;13.452;2022-09-09T03:00:48;14.30;99.90
25332;DHT22;13284;52.748;13.452;2022-09-09T03:03:15;14.30;99.90
25332;DHT22;13284;52.748;13.452;2022-09-09T03:05:45;14.20;99.90
25332;DHT22;13284;52.748;13.452;2022-09-09T03:08:11;14.30;99.90
25332;DHT22;13284;52.748;13.452;2022-09-09T03:10:38;14.30;99.90
25332;DHT22;13284;52.748;13.452;2022-09-09T03:13:04;14.30;99.90
25332;DHT22;13284;52.748;13.452;2022-09-09T03:15:31;14.30;99.90
25332;DHT22;13284;52.748;13.452;2022-09-09T03:17:58;14.30;99.90
25332;DHT22;13284;52.748;13.452;2022-09-09T03:20:28;14.30;99.90
25332;DHT22;13284;52.748;13.452;2022-09-09T03:22:55;14.20;99.90
25332;DHT22;13284;52.748;13.452;2022-09-09T03:25:21;14.30;99.90
25332;DHT22;13284;52.748;13.452;2022-09-09T03:27:49;14.20;99.90
25332;DHT22;13284;52.748;13.452;2022-09-09T03:30:15;14.20;99.90
25332;DHT22;13284;52.748;13.452;2022-09-09T03:32:41;14.20;99.90
25332;DHT22;13284;52.748;13.452;2022-09-09T03:35:07;14.20;99.90
25332;DHT22;13284;52.748;13.452;2022-09-09T03:37:33;14.20;99.90
25332;DHT22;13284;52.748;13.452;2022-09-09T03:39:59;14.20;99.90
25332;DHT22;13284;52.748;13.452;2022-09-09T03:42:25;14.10;99.90
25332;DHT22;13284;52.748;13.452;2022-09-09T03:44:51;14.20;99.90
25332;DHT22;13284;52.748;13.452;2022-09-09T03:47:21;14.20;99.90
25332;DHT22;13284;52.748;13.452;2022-09-09T03:49:49;14.10;99.90
25332;DHT22;13284;52.748;13.452;2022-09-09T03:52:15;14.10;99.90
25332;DHT22;13284;52.748;13.452;2022-09-09T03:54:41;14.10;99.90
25332;DHT22;13284;52.748;13.452;2022-09-09T03:57:08;14.10;99.90
25332;DHT22;13284;52.748;13.452;2022-09-09T03:59:34;14.20;99.90
25332;DHT22;13284;52.748;13.452;2022-09-09T04:02:00;14.10;99.90
25332;DHT22;13284;52.748;13.452;2022-09-09T04:04:26;14.10;99.90
25332;DHT22;13284;52.748;13.452;2022-09-09T04:06:53;14.10;99.90
25332;DHT22;13284;52.748;13.452;2022-09-09T04:09:18;14.10;99.90
25332;DHT22;13284;52.748;13.452;2022-09-09T04:11:44;14.10;99.90
25332;DHT22;13284;52.748;13.452;2022-09-09T04:14:10;14.00;99.90
25332;DHT22;13284;52.748;13.452;2022-09-09T04:16:36;14.00;99.90
25332;DHT22;13284;52.748;13.452;2022-09-09T04:19:03;14.00;99.90
25332;DHT22;13284;52.748;13.452;2022-09-09T04:21:33;14.00;99.90
25332;DHT22;13284;52.748;13.452;2022-09-09T04:23:59;14.00;99.90
25332;DHT22;13284;52.748;13.452;2022-09-09T04:26:25;14.00;99.90
25332;DHT22;13284;52.748;13.452;2022-09-09T04:28:51;14.00;99.90
25332;DHT22;13284;52.748;13.452;2022-09-09T04:31:20;14.00;99.90
25332;DHT22;13284;52.748;13.452;2022-09-09T04:33:49;14.00;99.90
25332;DHT22;13284;52.748;13.452;2022-09-09T04:36:15;14.00;99.90
25332;DHT22;13284;52.748;13.452;2022-09-09T04:38:41;14.00;99.90
25332;DHT22;13284;52.748;13.452;2022-09-09T04:41:09;14.00;99.90
25332;DHT22;13284;52.748;13.452;2022-09-09T04:43:39;14.00;99.90
25332;DHT22;13284;52.748;13.452;2022-09-09T04:46:05;14.00;99.90
25332;DHT22;13284;52.748;13.452;2022-09-09T04:48:32;14.00;99.90
25332;DHT22;13284;52.748;13.452;2022-09-09T04:51:02;14.00;99.90
25332;DHT22;13284;52.748;13.452;2022-09-09T04:53:30;14.00;99.90
25332;DHT22;13284;52.748;13.452;2022-09-09T04:56:08;14.00;99.90
25332;DHT22;13284;52.748;13.452;2022-09-09T04:58:36;14.10;99.90
25332;DHT22;13284;52.748;13.452;2022-09-09T05:01:28;14.10;99.90
25332;DHT22;13284;52.748;13.452;2022-09-09T05:03:54;14.00;99.90
25332;DHT22;13284;52.748;13.452;2022-09-09T05:06:22;14.00;99.90
25332;DHT22;13284;52.748;13.452;2022-09-09T05:08:48;14.10;99.90
25332;DHT22;13284;52.748;13.452;2022-09-09T05:11:25;14.10;99.90
25332;DHT22;13284;52.748;13.452;2022-09-09T05:13:52;14.10;99.90
25332;DHT22;13284;52.748;13.452;2022-09-09T05:16:20;14.20;99.90
25332;DHT22;13284;52.748;13.452;2022-09-09T05:18:46;14.20;99.90
25332;DHT22;13284;52.748;13.452;2022-09-09T05:21:13;14.20;99.90
25332;DHT22;13284;52.748;13.452;2022-09-09T05:23:40;14.20;99.90
25332;DHT22;13284;52.748;13.452;2022-09-09T05:26:08;14.20;99.90
25332;DHT22;13284;52.748;13.452;2022-09-09T05:28:35;14.20;99.90
25332;DHT22;13284;52.748;13.452;2022-09-09T05:31:04;14.30;99.90
25332;DHT22;13284;52.748;13.452;2022-09-09T05:33:31;14.30;99.90
25332;DHT22;13284;52.748;13.452;2022-09-09T05:35:59;14.30;99.90
25332;DHT22;13284;52.748;13.452;2022-09-09T05:38:25;14.40;99.90
25332;DHT22;13284;52.748;13.452;2022-09-09T05:40:52;14.40;99.90
25332;DHT22;13284;52.748;13.452;2022-09-09T05:43:19;14.50;99.90
25332;DHT22;13284;52.748;13.452;2022-09-09T05:45:48;14.50;99.90
25332;DHT22;13284;52.748;13.452;2022-09-09T05:48:15;14.50;99.90
25332;DHT22;13284;52.748;13.452;2022-09-09T05:50:42;14.60;99.90
25332;DHT22;13284;52.748;13.452;2022-09-09T05:53:08;14.60;99.90
25332;DHT22;13284;52.748;13.452;2022-09-09T05:55:35;14.70;99.90
25332;DHT22;13284;52.748;13.452;2022-09-09T05:58:01;14.70;99.90
25332;DHT22;13284;52.748;13.452;2022-09-09T06:00:28;14.80;99.90
25332;DHT22;13284;52.748;13.452;2022-09-09T06:02:57;14.80;99.90
25332;DHT22;13284;52.748;13.452;2022-09-09T06:05:23;14.80;99.90
25332;DHT22;13284;52.748;13.452;2022-09-09T06:07:52;14.90;99.90
25332;DHT22;13284;52.748;13.452;2022-09-09T06:10:18;14.90;99.90
25332;DHT22;13284;52.748;13.452;2022-09-09T06:12:44;15.00;99.90
25332;DHT22;13284;52.748;13.452;2022-09-09T06:15:10;15.00;99.90
25332;DHT22;13284;52.748;13.452;2022-09-09T06:17:36;15.10;99.90
25332;DHT22;13284;52.748;13.452;2022-09-09T06:20:04;15.10;99.90
25332;DHT22;13284;52.748;13.452;2022-09-09T06:22:31;15.10;99.90
25332;DHT22;13284;52.748;13.452;2022-09-09T06:24:56;15.10;99.90
25332;DHT22;13284;52.748;13.452;2022-09-09T06:27:22;15.10;99.90
25332;DHT22;13284;52.748;13.452;2022-09-09T06:29:48;15.10;99.90
25332;DHT22;13284;52.748;13.452;2022-09-09T06:32:14;15.20;99.90
25332;DHT22;13284;52.748;13.452;2022-09-09T06:34:40;15.20;99.90
25332;DHT22;13284;52.748;13.452;2022-09-09T06:37:06;15.30;99.90
25332;DHT22;13284;52.748;13.452;2022-09-09T06:39:34;15.30;99.90
25332;DHT22;13284;52.748;13.452;2022-09-09T06:42:02;15.30;99.90
25332;DHT22;13284;52.748;13.452;2022-09-09T06:44:29;15.40;99.90
25332;DHT22;13284;52.748;13.452;2022-09-09T06:46:57;15.40;99.90
25332;DHT22;13284;52.748;13.452;2022-09-09T06:49:23;15.40;99.90
25332;DHT22;13284;52.748;13.452;2022-09-09T06:51:49;15.40;99.90
25332;DHT22;13284;52.748;13.452;2022-09-09T06:54:15;15.50;99.90
25332;DHT22;13284;52.748;13.452;2022-09-09T06:56:42;15.50;99.90
25332;DHT22;13284;52.748;13.452;2022-09-09T06:59:09;15.60;99.90
25332;DHT22;13284;52.748;13.452;2022-09-09T07:01:40;15.60;99.90
25332;DHT22;13284;52.748;13.452;2022-09-09T07:04:06;15.70;99.90
25332;DHT22;13284;52.748;13.452;2022-09-09T07:06:35;15.70;99.90
25332;DHT22;13284;52.748;13.452;2022-09-09T07:09:04;15.70;99.90
25332;DHT22;13284;52.748;13.452;2022-09-09T07:11:41;15.80;99.90
25332;DHT22;13284;52.748;13.452;2022-09-09T07:14:07;15.90;99.90
25332;DHT22;13284;52.748;13.452;2022-09-09T07:16:34;16.00;99.90
25332;DHT22;13284;52.748;13.452;2022-09-09T07:19:03;16.00;99.90
25332;DHT22;13284;52.748;13.452;2022-09-09T07:21:30;16.10;99.90
25332;DHT22;13284;52.748;13.452;2022-09-09T07:23:56;16.10;99.90
25332;DHT22;13284;52.748;13.452;2022-09-09T07:26:24;16.20;99.90
25332;DHT22;13284;52.748;13.452;2022-09-09T07:28:50;16.30;99.90
25332;DHT22;13284;52.748;13.452;2022-09-09T07:31:23;16.40;99.90
25332;DHT22;13284;52.748;13.452;2022-09-09T07:33:49;16.40;99.90
25332;DHT22;13284;52.748;13.452;2022-09-09T07:36:20;16.50;99.90
25332;DHT22;13284;52.748;13.452;2022-09-09T07:38:52;16.60;99.90
25332;DHT22;13284;52.748;13.452;2022-09-09T07:43:54;16.70;99.90
25332;DHT22;13284;52.748;13.452;2022-09-09T07:46:22;16.90;99.90
25332;DHT22;13284;52.748;13.452;2022-09-09T07:48:51;16.90;99.90
25332;DHT22;13284;52.748;13.452;2022-09-09T07:51:20;17.00;99.90
25332;DHT22;13284;52.748;13.452;2022-09-09T07:53:51;17.10;99.90
25332;DHT22;13284;52.748;13.452;2022-09-09T07:56:17;17.20;99.90
25332;DHT22;13284;52.748;13.452;2022-09-09T07:58:47;17.30;99.90
25332;DHT22;13284;52.748;13.452;2022-09-09T08:01:15;17.40;99.90
25332;DHT22;13284;52.748;13.452;2022-09-09T08:03:47;17.50;99.90
25332;DHT22;13284;52.748;13.452;2022-09-09T08:06:18;17.70;99.90
25332;DHT22;13284;52.748;13.452;2022-09-09T08:08:44;17.90;99.90
25332;DHT22;13284;52.748;13.452;2022-09-09T08:11:13;18.00;99.90
25332;DHT22;13284;52.748;13.452;2022-09-09T08:13:40;18.20;99.90
25332;DHT22;13284;52.748;13.452;2022-09-09T08:16:14;18.40;99.90
25332;DHT22;13284;52.748;13.452;2022-09-09T08:18:41;18.60;99.90
25332;DHT22;13284;52.748;13.452;2022-09-09T08:21:12;18.80;99.90
25332;DHT22;13284;52.748;13.452;2022-09-09T08:23:42;18.80;99.90
25332;DHT22;13284;52.748;13.452;2022-09-09T08:26:13;18.90;99.90
25332;DHT22;13284;52.748;13.452;2022-09-09T08:28:41;19.00;99.90
25332;DHT22;13284;52.748;13.452;2022-09-09T08:31:13;19.10;99.90
25332;DHT22;13284;52.748;13.452;2022-09-09T08:33:41;19.10;99.90
25332;DHT22;13284;52.748;13.452;2022-09-09T08:36:10;19.20;99.90
25332;DHT22;13284;52.748;13.452;2022-09-09T08:38:37;19.20;99.90
25332;DHT22;13284;52.748;13.452;2022-09-09T08:41:29;19.30;99.90
25332;DHT22;13284;52.748;13.452;2022-09-09T08:44:17;19.40;99.90
25332;DHT22;13284;52.748;13.452;2022-09-09T08:47:11;19.80;99.90
25332;DHT22;13284;52.748;13.452;2022-09-09T08:53:15;20.60;99.90
25332;DHT22;13284;52.748;13.452;2022-09-09T08:56:11;20.80;99.90
25332;DHT22;13284;52.748;13.452;2022-09-09T08:58:45;21.20;99.90
25332;DHT22;13284;52.748;13.452;2022-09-09T09:29:25;21.00;99.90
25332;DHT22;13284;52.748;13.452;2022-09-09T09:31:56;21.10;99.90
25332;DHT22;13284;52.748;13.452;2022-09-09T09:34:26;21.10;99.90
25332;DHT22;13284;52.748;13.452;2022-09-09T09:36:54;21.10;99.90
25332;DHT22;13284;52.748;13.452;2022-09-09T09:39:31;21.10;99.90
25332;DHT22;13284;52.748;13.452;2022-09-09T09:42:11;21.20;99.90
25332;DHT22;13284;52.748;13.452;2022-09-09T09:44:39;21.30;99.90
25332;DHT22;13284;52.748;13.452;2022-09-09T09:47:08;21.30;99.90
25332;DHT22;13284;52.748;13.452;2022-09-09T09:49:34;21.30;99.90
25332;DHT22;13284;52.748;13.452;2022-09-09T09:52:02;21.50;99.90
25332;DHT22;13284;52.748;13.452;2022-09-09T09:54:33;22.00;99.90
25332;DHT22;13284;52.748;13.452;2022-09-09T09:57:12;22.60;99.90
25332;DHT22;13284;52.748;13.452;2022-09-09T09:59:38;23.30;99.90
25332;DHT22;13284;52.748;13.452;2022-09-09T10:04:39;24.30;99.90
25332;DHT22;13284;52.748;13.452;2022-09-09T10:07:18;24.30;99.90
25332;DHT22;13284;52.748;13.452;2022-09-09T10:09:45;24.60;99.90
25332;DHT22;13284;52.748;13.452;2022-09-09T10:20:37;24.40;99.90
25332;DHT22;13284;52.748;13.452;2022-09-09T10:25:59;23.70;99.90
25332;DHT22;13284;52.748;13.452;2022-09-09T10:37:51;24.10;99.90
25332;DHT22;13284;52.748;13.452;2022-09-09T10:40:46;23.70;99.90
25332;DHT22;13284;52.748;13.452;2022-09-09T10:43:29;23.30;99.90
25332;DHT22;13284;52.748;13.452;2022-09-09T10:46:08;23.90;99.90
25332;DHT22;13284;52.748;13.452;2022-09-09T10:51:44;24.90;99.90
25332;DHT22;13284;52.748;13.452;2022-09-09T10:54:25;25.30;99.90
25332;DHT22;13284;52.748;13.452;2022-09-09T10:56:58;25.20;99.90
25332;DHT22;13284;52.748;13.452;2022-09-09T10:59:27;25.20;99.90
25332;DHT22;13284;52.748;13.452;2022-09-09T11:02:00;25.50;99.90
25332;DHT22;13284;52.748;13.452;2022-09-09T11:04:42;25.20;99.90
25332;DHT22;13284;52.748;13.452;2022-09-09T11:07:12;25.00;99.90
25332;DHT22;13284;52.748;13.452;2022-09-09T11:09:42;25.60;99.90
25332;DHT22;13284;52.748;13.452;2022-09-09T11:12:15;25.70;99.90
25332;DHT22;13284;52.748;13.452;2022-09-09T11:17:40;25.90;99.90
25332;DHT22;13284;52.748;13.452;2022-09-09T11:20:11;25.80;99.90
25332;DHT22;13284;52.748;13.452;2022-09-09T11:22:58;25.90;99.90
25332;DHT22;13284;52.748;13.452;2022-09-09T11:25:55;26.40;99.90
25332;DHT22;13284;52.748;13.452;2022-09-09T11:28:38;26.30;99.90
25332;DHT22;13284;52.748;13.452;2022-09-09T11:31:32;26.20;99.90
25332;DHT22;13284;52.748;13.452;2022-09-09T11:34:53;26.10;99.90
25332;DHT22;13284;52.748;13.452;2022-09-09T11:37:13;26.60;99.90
25332;DHT22;13284;52.748;13.452;2022-09-09T11:40:14;25.20;99.90
25332;DHT22;13284;52.748;13.452;2022-09-09T11:42:41;24.70;99.90
25332;DHT22;13284;52.748;13.452;2022-09-09T11:45:28;25.40;99.90
25332;DHT22;13284;52.748;13.452;2022-09-09T11:47:59;26.10;99.90
25332;DHT22;13284;52.748;13.452;2022-09-09T11:52:51;27.00;99.90
25332;DHT22;13284;52.748;13.452;2022-09-09T11:55:30;26.70;99.90
25332;DHT22;13284;52.748;13.452;2022-09-09T11:58:03;25.90;99.90
25332;DHT22;13284;52.748;13.452;2022-09-09T12:00:34;26.90;99.90
25332;DHT22;13284;52.748;13.452;2022-09-09T12:03:00;27.10;99.90
25332;DHT22;13284;52.748;13.452;2022-09-09T12:05:41;26.60;99.90
25332;DHT22;13284;52.748;13.452;2022-09-09T12:08:09;26.20;99.90
25332;DHT22;13284;52.748;13.452;2022-09-09T12:10:39;25.90;99.90
25332;DHT22;13284;52.748;13.452;2022-09-09T12:13:24;25.30;99.90
25332;DHT22;13284;52.748;13.452;2022-09-09T12:15:56;24.50;99.90
25332;DHT22;13284;52.748;13.452;2022-09-09T12:18:38;25.30;99.90
25332;DHT22;13284;52.748;13.452;2022-09-09T12:24:11;26.20;99.90
25332;DHT22;13284;52.748;13.452;2022-09-09T12:26:47;26.20;99.90
25332;DHT22;13284;52.748;13.452;2022-09-09T12:32:17;26.00;99.90
25332;DHT22;13284;52.748;13.452;2022-09-09T12:34:56;25.80;99.90
25332;DHT22;13284;52.748;13.452;2022-09-09T12:37:41;26.00;99.90
25332;DHT22;13284;52.748;13.452;2022-09-09T12:40:23;25.40;99.90
25332;DHT22;13284;52.748;13.452;2022-09-09T12:42:50;24.80;99.90
25332;DHT22;13284;52.748;13.452;2022-09-09T12:45:18;24.60;99.90
25332;DHT22;13284;52.748;13.452;2022-09-09T12:48:08;25.50;99.90
25332;DHT22;13284;52.748;13.452;2022-09-09T12:50:35;25.70;99.90
25332;DHT22;13284;52.748;13.452;2022-09-09T12:53:25;26.10;99.90
25332;DHT22;13284;52.748;13.452;2022-09-09T12:56:21;25.50;99.90
25332;DHT22;13284;52.748;13.452;2022-09-09T12:58:50;25.80;99.90
25332;DHT22;13284;52.748;13.452;2022-09-09T13:01:26;25.00;99.90
25332;DHT22;13284;52.748;13.452;2022-09-09T13:03:52;25.20;99.90
25332;DHT22;13284;52.748;13.452;2022-09-09T13:06:29;25.00;99.90
25332;DHT22;13284;52.748;13.452;2022-09-09T13:08:57;24.90;99.90
25332;DHT22;13284;52.748;13.452;2022-09-09T13:11:39;24.60;99.90
25332;DHT22;13284;52.748;13.452;2022-09-09T13:14:15;24.40;99.90
25332;DHT22;13284;52.748;13.452;2022-09-09T13:16:53;24.50;99.90
25332;DHT22;13284;52.748;13.452;2022-09-09T13:19:19;24.10;99.90
25332;DHT22;13284;52.748;13.452;2022-09-09T13:21:47;23.90;99.90
25332;DHT22;13284;52.748;13.452;2022-09-09T13:24:33;23.80;99.90
25332;DHT22;13284;52.748;13.452;2022-09-09T13:27:03;23.70;99.90
25332;DHT22;13284;52.748;13.452;2022-09-09T13:29:30;23.60;99.90
25332;DHT22;13284;52.748;13.452;2022-09-09T13:32:12;23.50;99.90
25332;DHT22;13284;52.748;13.452;2022-09-09T13:34:38;23.40;99.90
25332;DHT22;13284;52.748;13.452;2022-09-09T13:37:20;23.30;99.90
25332;DHT22;13284;52.748;13.452;2022-09-09T13:39:52;23.50;99.90
25332;DHT22;13284;52.748;13.452;2022-09-09T13:42:30;23.50;99.90
25332;DHT22;13284;52.748;13.452;2022-09-09T13:44:58;23.50;99.90
25332;DHT22;13284;52.748;13.452;2022-09-09T13:47:33;23.40;99.90
25332;DHT22;13284;52.748;13.452;2022-09-09T13:50:26;23.30;99.90
25332;DHT22;13284;52.748;13.452;2022-09-09T13:52:57;23.30;99.90
25332;DHT22;13284;52.748;13.452;2022-09-09T13:55:36;23.30;99.90
25332;DHT22;13284;52.748;13.452;2022-09-09T13:58:03;23.30;99.90
25332;DHT22;13284;52.748;13.452;2022-09-09T14:00:32;23.30;99.90
25332;DHT22;13284;52.748;13.452;2022-09-09T14:02:58;23.40;99.90
25332;DHT22;13284;52.748;13.452;2022-09-09T14:05:27;23.30;99.90
25332;DHT22;13284;52.748;13.452;2022-09-09T14:07:53;23.40;99.90
25332;DHT22;13284;52.748;13.452;2022-09-09T14:10:19;23.40;99.90
25332;DHT22;13284;52.748;13.452;2022-09-09T14:12:44;23.40;99.90
25332;DHT22;13284;52.748;13.452;2022-09-09T14:15:12;23.40;99.90
25332;DHT22;13284;52.748;13.452;2022-09-09T14:17:37;23.40;99.90
25332;DHT22;13284;52.748;13.452;2022-09-09T14:20:05;23.30;99.90
25332;DHT22;13284;52.748;13.452;2022-09-09T14:22:35;23.40;99.90
25332;DHT22;13284;52.748;13.452;2022-09-09T14:25:01;23.40;99.90
25332;DHT22;13284;52.748;13.452;2022-09-09T14:27:27;23.30;99.90
25332;DHT22;13284;52.748;13.452;2022-09-09T14:29:53;23.40;99.90
25332;DHT22;13284;52.748;13.452;2022-09-09T14:32:20;23.20;99.90
25332;DHT22;13284;52.748;13.452;2022-09-09T14:34:46;23.20;99.90
25332;DHT22;13284;52.748;13.452;2022-09-09T14:37:15;23.20;99.90
25332;DHT22;13284;52.748;13.452;2022-09-09T14:39:42;23.10;99.90
25332;DHT22;13284;52.748;13.452;2022-09-09T14:42:10;23.10;99.90
25332;DHT22;13284;52.748;13.452;2022-09-09T14:44:37;23.00;99.90
25332;DHT22;13284;52.748;13.452;2022-09-09T14:47:06;23.00;99.90
25332;DHT22;13284;52.748;13.452;2022-09-09T14:49:36;23.00;99.90
25332;DHT22;13284;52.748;13.452;2022-09-09T14:52:03;23.00;99.90
25332;DHT22;13284;52.748;13.452;2022-09-09T14:54:28;23.00;99.90
25332;DHT22;13284;52.748;13.452;2022-09-09T14:56:54;23.10;99.90
25332;DHT22;13284;52.748;13.452;2022-09-09T14:59:20;23.20;99.90
25332;DHT22;13284;52.748;13.452;2022-09-09T15:01:45;23.10;99.90
25332;DHT22;13284;52.748;13.452;2022-09-09T15:04:12;23.00;99.90
25332;DHT22;13284;52.748;13.452;2022-09-09T15:06:40;22.90;99.90
25332;DHT22;13284;52.748;13.452;2022-09-09T15:09:08;22.90;99.90
25332;DHT22;13284;52.748;13.452;2022-09-09T15:11:35;22.80;99.90
25332;DHT22;13284;52.748;13.452;2022-09-09T15:14:07;22.80;99.90
25332;DHT22;13284;52.748;13.452;2022-09-09T15:16:33;22.80;99.90
25332;DHT22;13284;52.748;13.452;2022-09-09T15:19:01;22.80;99.90
25332;DHT22;13284;52.748;13.452;2022-09-09T15:30:57;22.50;99.90
25332;DHT22;13284;52.748;13.452;2022-09-09T15:40:57;22.50;99.90
25332;DHT22;13284;52.748;13.452;2022-09-09T15:43:23;22.50;99.90
25332;DHT22;13284;52.748;13.452;2022-09-09T15:45:56;22.60;99.90
25332;DHT22;13284;52.748;13.452;2022-09-09T15:48:32;22.60;99.90
25332;DHT22;13284;52.748;13.452;2022-09-09T15:51:05;22.60;99.90
25332;DHT22;13284;52.748;13.452;2022-09-09T15:53:31;22.70;99.90
25332;DHT22;13284;52.748;13.452;2022-09-09T15:56:00;22.60;99.90
25332;DHT22;13284;52.748;13.452;2022-09-09T15:58:30;22.70;99.90
25332;DHT22;13284;52.748;13.452;2022-09-09T16:01:08;22.60;99.90
25332;DHT22;13284;52.748;13.452;2022-09-09T16:03:38;22.50;99.90
25332;DHT22;13284;52.748;13.452;2022-09-09T16:06:05;22.30;99.90
25332;DHT22;13284;52.748;13.452;2022-09-09T16:08:36;22.30;99.90
25332;DHT22;13284;52.748;13.452;2022-09-09T16:11:14;22.20;99.90
25332;DHT22;13284;52.748;13.452;2022-09-09T16:13:42;22.10;99.90
25332;DHT22;13284;52.748;13.452;2022-09-09T16:16:11;22.00;99.90
25332;DHT22;13284;52.748;13.452;2022-09-09T16:18:40;21.90;99.90
25332;DHT22;13284;52.748;13.452;2022-09-09T16:21:06;21.80;99.90
25332;DHT22;13284;52.748;13.452;2022-09-09T16:23:34;21.70;99.90
25332;DHT22;13284;52.748;13.452;2022-09-09T16:26:01;21.60;99.90
25332;DHT22;13284;52.748;13.452;2022-09-09T16:28:27;21.40;99.90
25332;DHT22;13284;52.748;13.452;2022-09-09T16:30:54;21.40;99.90
25332;DHT22;13284;52.748;13.452;2022-09-09T16:33:20;21.20;99.90
25332;DHT22;13284;52.748;13.452;2022-09-09T16:35:46;21.10;99.90
25332;DHT22;13284;52.748;13.452;2022-09-09T16:38:12;21.00;99.90
25332;DHT22;13284;52.748;13.452;2022-09-09T16:40:38;20.90;99.90
25332;DHT22;13284;52.748;13.452;2022-09-09T16:43:07;20.90;99.90
25332;DHT22;13284;52.748;13.452;2022-09-09T16:45:42;20.80;99.90
25332;DHT22;13284;52.748;13.452;2022-09-09T16:48:08;20.70;99.90
25332;DHT22;13284;52.748;13.452;2022-09-09T16:50:34;20.60;99.90
25332;DHT22;13284;52.748;13.452;2022-09-09T16:53:00;20.60;99.90
25332;DHT22;13284;52.748;13.452;2022-09-09T16:55:28;20.50;99.90
25332;DHT22;13284;52.748;13.452;2022-09-09T16:57:55;20.50;99.90
25332;DHT22;13284;52.748;13.452;2022-09-09T17:00:21;20.40;99.90
25332;DHT22;13284;52.748;13.452;2022-09-09T17:02:48;20.40;99.90
25332;DHT22;13284;52.748;13.452;2022-09-09T17:05:14;20.30;99.90
25332;DHT22;13284;52.748;13.452;2022-09-09T17:07:40;20.20;99.90
25332;DHT22;13284;52.748;13.452;2022-09-09T17:10:07;20.10;99.90
25332;DHT22;13284;52.748;13.452;2022-09-09T17:12:33;20.00;99.90
25332;DHT22;13284;52.748;13.452;2022-09-09T17:15:01;19.90;99.90
25332;DHT22;13284;52.748;13.452;2022-09-09T17:17:28;19.90;99.90
25332;DHT22;13284;52.748;13.452;2022-09-09T17:19:54;19.80;99.90
25332;DHT22;13284;52.748;13.452;2022-09-09T17:22:20;19.80;99.90
25332;DHT22;13284;52.748;13.452;2022-09-09T17:24:47;19.70;99.90
25332;DHT22;13284;52.748;13.452;2022-09-09T17:27:13;19.60;99.90
25332;DHT22;13284;52.748;13.452;2022-09-09T17:29:39;19.50;99.90
25332;DHT22;13284;52.748;13.452;2022-09-09T17:32:05;19.40;99.90
25332;DHT22;13284;52.748;13.452;2022-09-09T17:34:36;19.30;99.90
25332;DHT22;13284;52.748;13.452;2022-09-09T17:37:03;19.20;99.90